createdAt,value
2022-08-07T00:02:35.297Z,12.27
2022-08-07T00:04:04.350Z,12.26
2022-08-07T00:06:33.690Z,12.23
2022-08-07T00:09:16.300Z,12.19
2022-08-07T00:11:54.206Z,12.20
2022-08-07T00:14:25.178Z,12.17
2022-08-07T00:16:52.244Z,12.14
2022-08-07T00:19:21.564Z,12.13
2022-08-07T00:21:56.979Z,12.13
2022-08-07T00:24:28.906Z,12.20
2022-08-07T00:27:07.328Z,12.09
2022-08-07T00:29:34.407Z,12.00
2022-08-07T00:32:05.797Z,12.02
2022-08-07T00:34:32.626Z,11.94
2022-08-07T00:37:02.086Z,11.95
2022-08-07T00:39:31.566Z,11.89
2022-08-07T00:42:01.936Z,11.89
2022-08-07T00:44:31.202Z,11.86
2022-08-07T00:46:59.766Z,11.82
2022-08-07T00:50:20.037Z,11.81
2022-08-07T00:52:12.685Z,11.81
2022-08-07T00:54:40.617Z,11.82
2022-08-07T00:57:09.025Z,11.75
2022-08-07T00:59:36.697Z,11.80
2022-08-07T01:02:08.947Z,11.80
2022-08-07T01:04:43.171Z,11.77
2022-08-07T01:07:10.795Z,11.78
2022-08-07T01:10:07.211Z,11.80
2022-08-07T01:12:30.243Z,11.78
2022-08-07T01:15:01.738Z,11.75
2022-08-07T01:17:31.942Z,11.72
2022-08-07T01:20:16.994Z,11.70
2022-08-07T01:22:54.036Z,11.63
2022-08-07T01:25:40.338Z,11.60
2022-08-07T01:28:15.554Z,11.58
2022-08-07T01:30:42.550Z,11.56
2022-08-07T01:33:09.053Z,11.51
2022-08-07T01:35:52.916Z,11.48
2022-08-07T01:38:25.241Z,11.42
2022-08-07T01:40:55.038Z,11.45
2022-08-07T01:43:22.720Z,11.42
2022-08-07T01:45:54.418Z,11.40
2022-08-07T01:48:29.719Z,11.38
2022-08-07T01:51:24.727Z,11.37
2022-08-07T01:54:09.591Z,11.34
2022-08-07T01:56:53.514Z,11.32
2022-08-07T01:59:43.952Z,11.34
2022-08-07T02:02:33.001Z,11.26
2022-08-07T02:05:09.244Z,11.27
2022-08-07T02:07:51.217Z,11.22
2022-08-07T02:10:23.936Z,11.20
2022-08-07T02:12:51.206Z,11.12
2022-08-07T02:15:25.432Z,11.17
2022-08-07T02:17:56.429Z,11.08
2022-08-07T02:20:24.672Z,11.13
2022-08-07T02:23:01.729Z,11.07
2022-08-07T02:26:10.275Z,11.07
2022-08-07T02:28:24.786Z,11.01
2022-08-07T02:30:54.995Z,11.01
2022-08-07T02:33:24.833Z,10.99
2022-08-07T02:36:29.408Z,10.96
2022-08-07T02:39:01.480Z,10.95
2022-08-07T02:41:33.493Z,10.91
2022-08-07T02:44:04.509Z,10.88
2022-08-07T02:46:33.658Z,10.87
2022-08-07T02:49:05.404Z,10.85
2022-08-07T02:51:42.602Z,10.82
2022-08-07T02:54:20.303Z,10.80
2022-08-07T02:56:47.266Z,10.88
2022-08-07T02:59:18.843Z,10.78
2022-08-07T03:01:52.127Z,10.76
2022-08-07T03:04:23.116Z,10.76
2022-08-07T03:06:52.424Z,10.75
2022-08-07T03:09:42.386Z,10.75
2022-08-07T03:12:11.573Z,10.74
2022-08-07T03:14:52.423Z,10.75
2022-08-07T03:17:19.906Z,10.73
2022-08-07T03:19:52.174Z,10.74
2022-08-07T03:22:24.317Z,10.72
2022-08-07T03:24:57.313Z,10.75
2022-08-07T03:27:30.752Z,10.72
2022-08-07T03:30:10.714Z,10.71
2022-08-07T03:32:49.144Z,10.71
2022-08-07T03:35:27.524Z,10.71
2022-08-07T03:38:13.210Z,10.69
2022-08-07T03:40:40.211Z,10.68
2022-08-07T03:43:14.645Z,10.66
2022-08-07T03:45:43.673Z,10.74
2022-08-07T03:48:14.886Z,10.67
2022-08-07T03:50:55.911Z,10.63
2022-08-07T03:54:02.068Z,10.64
2022-08-07T03:56:14.334Z,10.58
2022-08-07T03:59:08.093Z,10.64
2022-08-07T04:01:30.088Z,10.64
2022-08-07T04:03:58.890Z,10.63
2022-08-07T04:06:36.378Z,10.66
2022-08-07T04:09:06.501Z,10.69
2022-08-07T04:12:26.912Z,10.69
2022-08-07T04:14:38.798Z,10.72
2022-08-07T04:17:20.583Z,10.73
2022-08-07T04:19:52.309Z,10.79
2022-08-07T04:22:23.685Z,10.80
2022-08-07T04:24:58.007Z,10.81
2022-08-07T04:27:25.768Z,10.88
2022-08-07T04:30:02.360Z,10.94
2022-08-07T04:32:34.751Z,10.98
2022-08-07T04:35:07.099Z,11.00
2022-08-07T04:37:52.825Z,11.04
2022-08-07T04:40:26.683Z,11.03
2022-08-07T04:43:01.387Z,11.09
2022-08-07T04:45:57.798Z,11.13
2022-08-07T04:48:28.382Z,11.17
2022-08-07T04:51:16.075Z,11.23
2022-08-07T04:54:09.411Z,11.26
2022-08-07T04:58:10.084Z,11.30
2022-08-07T05:00:14.506Z,11.36
2022-08-07T05:02:43.527Z,11.42
2022-08-07T05:05:52.538Z,11.47
2022-08-07T05:08:59.502Z,11.53
2022-08-07T05:11:24.320Z,11.66
2022-08-07T05:14:56.444Z,11.76
2022-08-07T05:17:00.587Z,11.85
2022-08-07T05:19:44.838Z,11.97
2022-08-07T05:22:26.559Z,12.07
2022-08-07T05:24:57.143Z,12.12
2022-08-07T05:28:16.957Z,12.31
2022-08-07T05:30:25.097Z,12.43
2022-08-07T05:32:58.724Z,12.58
2022-08-07T05:35:33.906Z,12.69
2022-08-07T05:38:09.858Z,12.84
2022-08-07T05:40:50.413Z,12.96
2022-08-07T05:43:19.349Z,13.13
2022-08-07T05:46:06.211Z,13.30
2022-08-07T05:48:32.838Z,13.46
2022-08-07T05:51:03.438Z,13.69
2022-08-07T05:54:09.597Z,13.87
2022-08-07T05:56:28.355Z,14.11
2022-08-07T05:58:58.386Z,14.27
2022-08-07T06:01:27.499Z,14.40
2022-08-07T06:04:04.256Z,14.54
2022-08-07T06:06:32.898Z,14.64
2022-08-07T06:09:01.083Z,14.78
2022-08-07T06:11:32.744Z,14.95
2022-08-07T06:14:12.957Z,15.15
2022-08-07T06:16:50.774Z,15.32
2022-08-07T06:19:51.775Z,15.42
2022-08-07T06:22:22.834Z,15.56
2022-08-07T06:24:58.435Z,15.67
2022-08-07T06:27:43.984Z,15.80
2022-08-07T06:30:32.214Z,15.92
2022-08-07T06:33:04.098Z,16.05
2022-08-07T06:35:45.476Z,16.20
2022-08-07T06:38:20.525Z,16.35
2022-08-07T06:40:53.263Z,16.56
2022-08-07T06:43:22.441Z,16.73
2022-08-07T06:45:50.524Z,16.87
2022-08-07T06:48:24.779Z,17.01
2022-08-07T06:50:54.219Z,17.18
2022-08-07T06:55:30.084Z,17.31
2022-08-07T06:56:15.343Z,17.48
2022-08-07T07:00:14.422Z,17.59
2022-08-07T07:01:43.858Z,17.72
2022-08-07T07:04:28.579Z,17.83
2022-08-07T07:07:01.845Z,17.97
2022-08-07T07:09:31.167Z,18.07
2022-08-07T07:12:18.104Z,18.21
2022-08-07T07:14:48.080Z,18.29
2022-08-07T07:17:45.491Z,18.41
2022-08-07T07:20:25.734Z,18.51
2022-08-07T07:24:06.074Z,18.65
2022-08-07T07:26:35.115Z,18.77
2022-08-07T07:28:48.611Z,18.90
2022-08-07T07:31:39.815Z,19.10
2022-08-07T07:34:10.345Z,19.24
2022-08-07T07:36:48.027Z,19.35
2022-08-07T07:39:22.105Z,19.40
2022-08-07T07:42:09.033Z,19.45
2022-08-07T07:44:41.972Z,19.51
2022-08-07T07:47:22.959Z,19.54
2022-08-07T07:50:36.179Z,19.64
2022-08-07T07:52:40.991Z,19.70
2022-08-07T07:55:10.922Z,19.76
2022-08-07T07:57:52.434Z,19.84
2022-08-07T08:00:31.577Z,19.90
2022-08-07T08:03:09.435Z,20.06
2022-08-07T08:05:55.045Z,20.15
2022-08-07T08:08:35.584Z,20.27
2022-08-07T08:11:08.106Z,20.39
2022-08-07T08:13:53.136Z,20.46
2022-08-07T08:16:30.021Z,20.55
2022-08-07T08:19:00.406Z,20.56
2022-08-07T08:22:03.062Z,20.67
2022-08-07T08:25:04.534Z,20.68
2022-08-07T08:27:43.955Z,20.78
2022-08-07T08:30:23.387Z,20.73
2022-08-07T08:32:59.469Z,20.83
2022-08-07T08:35:39.108Z,20.83
2022-08-07T08:38:13.000Z,20.85
2022-08-07T08:40:46.783Z,20.94
2022-08-07T08:43:42.359Z,21.02
2022-08-07T08:46:28.876Z,21.04
2022-08-07T08:49:09.880Z,21.16
2022-08-07T08:52:01.109Z,21.22
2022-08-07T08:54:41.487Z,21.30
2022-08-07T08:57:19.418Z,21.46
2022-08-07T08:59:53.762Z,21.57
2022-08-07T09:02:42.106Z,21.58
2022-08-07T09:05:32.001Z,21.62
2022-08-07T09:08:28.668Z,21.63
2022-08-07T09:11:05.860Z,21.62
2022-08-07T09:13:46.291Z,21.78
2022-08-07T09:16:29.890Z,21.95
2022-08-07T09:19:51.047Z,22.15
2022-08-07T09:24:31.728Z,22.45
2022-08-07T09:25:26.751Z,22.76
2022-08-07T09:30:01.889Z,23.11
2022-08-07T09:31:08.502Z,23.52
2022-08-07T09:33:56.840Z,23.96
2022-08-07T09:36:28.566Z,24.30
2022-08-07T09:39:18.115Z,24.74
2022-08-07T09:42:09.251Z,25.11
2022-08-07T09:47:51.294Z,25.44
2022-08-07T09:48:14.653Z,25.80
2022-08-07T09:51:14.539Z,26.08
2022-08-07T09:54:03.782Z,26.19
2022-08-07T09:56:54.864Z,26.38
2022-08-07T10:00:00.946Z,26.50
2022-08-07T10:02:55.397Z,26.41
2022-08-07T10:06:00.748Z,26.25
2022-08-07T10:09:06.513Z,26.31
2022-08-07T10:12:19.831Z,26.18
2022-08-07T10:14:55.105Z,26.05
2022-08-07T10:18:02.547Z,25.95
2022-08-07T10:20:58.903Z,26.04
2022-08-07T10:24:05.311Z,25.89
2022-08-07T10:27:11.215Z,25.79
2022-08-07T10:29:46.013Z,25.59
2022-08-07T10:32:59.469Z,25.41
2022-08-07T10:36:18.841Z,25.28
2022-08-07T10:39:05.610Z,25.39
2022-08-07T10:41:47.151Z,25.09
2022-08-07T10:44:38.265Z,25.15
2022-08-07T10:47:26.967Z,25.26
2022-08-07T10:50:16.938Z,25.19
2022-08-07T10:52:51.820Z,25.19
2022-08-07T10:55:37.971Z,25.19
2022-08-07T10:58:31.926Z,25.25
2022-08-07T11:01:25.452Z,25.21
2022-08-07T11:04:31.480Z,25.12
2022-08-07T11:07:24.838Z,24.93
2022-08-07T11:10:09.922Z,24.73
2022-08-07T11:13:01.623Z,24.51
2022-08-07T11:15:34.172Z,24.37
2022-08-07T11:18:13.391Z,24.41
2022-08-07T11:20:58.830Z,24.65
2022-08-07T11:23:48.438Z,24.95
2022-08-07T11:26:38.561Z,25.33
2022-08-07T11:29:41.249Z,25.79
2022-08-07T11:32:26.117Z,26.21
2022-08-07T11:34:59.563Z,26.39
2022-08-07T11:37:57.880Z,26.47
2022-08-07T11:41:04.028Z,26.50
2022-08-07T11:44:18.674Z,26.49
2022-08-07T11:47:10.404Z,26.31
2022-08-07T11:50:31.322Z,26.21
2022-08-07T11:53:09.738Z,26.17
2022-08-07T11:56:24.767Z,26.19
2022-08-07T11:59:00.926Z,26.25
2022-08-07T12:01:59.591Z,26.30
2022-08-07T12:04:43.004Z,26.19
2022-08-07T12:07:39.171Z,26.01
2022-08-07T12:10:19.484Z,25.91
2022-08-07T12:13:00.630Z,25.74
2022-08-07T12:15:35.865Z,25.71
2022-08-07T12:18:45.401Z,25.87
2022-08-07T12:21:55.127Z,26.22
2022-08-07T12:24:38.367Z,26.50
2022-08-07T12:27:18.564Z,26.79
2022-08-07T12:30:02.147Z,26.90
2022-08-07T12:32:38.644Z,27.01
2022-08-07T12:35:09.394Z,27.22
2022-08-07T12:38:10.675Z,27.38
2022-08-07T12:40:47.269Z,27.89
2022-08-07T12:44:03.617Z,27.85
2022-08-07T12:46:32.289Z,28.01
2022-08-07T12:49:39.823Z,27.94
2022-08-07T12:52:13.753Z,27.94
2022-08-07T12:55:05.286Z,27.91
2022-08-07T12:57:39.224Z,27.92
2022-08-07T13:00:41.647Z,27.88
2022-08-07T13:03:22.969Z,27.70
2022-08-07T13:06:27.281Z,27.49
2022-08-07T13:10:18.963Z,27.38
2022-08-07T13:12:10.091Z,27.29
2022-08-07T13:15:01.753Z,27.22
2022-08-07T13:17:43.868Z,27.07
2022-08-07T13:20:38.476Z,27.07
2022-08-07T13:24:02.051Z,26.99
2022-08-07T13:26:18.180Z,27.19
2022-08-07T13:28:58.939Z,27.25
2022-08-07T13:32:23.572Z,27.42
2022-08-07T13:35:11.773Z,27.48
2022-08-07T13:37:55.608Z,27.43
2022-08-07T13:40:35.413Z,27.48
2022-08-07T13:43:12.301Z,27.60
2022-08-07T13:46:11.958Z,27.73
2022-08-07T13:48:34.143Z,27.93
2022-08-07T13:51:27.637Z,28.08
2022-08-07T13:54:00.501Z,28.23
2022-08-07T13:56:35.376Z,28.23
2022-08-07T13:59:13.046Z,28.27
2022-08-07T14:02:05.262Z,28.20
2022-08-07T14:04:35.655Z,28.40
2022-08-07T14:07:09.791Z,28.51
2022-08-07T14:10:17.420Z,28.45
2022-08-07T14:12:36.274Z,28.66
2022-08-07T14:15:11.506Z,28.69
2022-08-07T14:18:23.540Z,28.87
2022-08-07T14:20:43.381Z,28.88
2022-08-07T14:23:31.426Z,29.04
2022-08-07T14:26:28.185Z,29.09
2022-08-07T14:29:04.455Z,29.15
2022-08-07T14:31:42.972Z,29.15
2022-08-07T14:34:29.226Z,29.27
2022-08-07T14:37:04.073Z,29.33
2022-08-07T14:40:15.987Z,29.34
2022-08-07T14:42:27.538Z,29.43
2022-08-07T14:45:21.996Z,29.50
2022-08-07T14:47:49.156Z,29.59
2022-08-07T14:50:19.792Z,29.62
2022-08-07T14:52:47.877Z,29.74
2022-08-07T14:55:18.125Z,29.76
2022-08-07T15:00:39.434Z,29.82
2022-08-07T15:03:19.439Z,29.55
2022-08-07T15:05:54.635Z,29.38
2022-08-07T15:08:47.575Z,29.16
2022-08-07T15:14:16.559Z,28.58
2022-08-07T15:20:30.201Z,28.08
2022-08-07T15:22:33.383Z,28.24
2022-08-07T15:25:17.916Z,27.98
2022-08-07T15:28:33.040Z,28.05
2022-08-07T15:30:59.441Z,28.25
2022-08-07T15:33:33.670Z,28.34
2022-08-07T15:36:05.705Z,28.61
2022-08-07T15:38:58.765Z,28.76
2022-08-07T15:42:45.844Z,28.87
2022-08-07T15:44:15.001Z,28.93
2022-08-07T15:50:04.951Z,28.98
2022-08-07T15:52:30.265Z,28.97
2022-08-07T15:55:02.857Z,29.01
2022-08-07T15:57:40.120Z,28.89
2022-08-07T16:00:31.062Z,28.70
2022-08-07T16:03:03.021Z,28.52
2022-08-07T16:05:31.532Z,28.23
2022-08-07T16:08:32.378Z,28.02
2022-08-07T16:11:02.532Z,27.79
2022-08-07T16:13:59.009Z,27.58
2022-08-07T16:17:14.948Z,27.47
2022-08-07T16:20:33.899Z,27.23
2022-08-07T16:23:12.115Z,27.06
2022-08-07T16:25:54.405Z,26.92
2022-08-07T16:30:06.617Z,26.86
2022-08-07T16:32:02.490Z,26.72
2022-08-07T16:34:50.953Z,26.59
2022-08-07T16:38:06.753Z,26.36
2022-08-07T16:41:13.872Z,26.32
2022-08-07T16:44:47.561Z,26.18
2022-08-07T16:47:15.864Z,26.26
2022-08-07T16:50:35.492Z,26.36
2022-08-07T16:53:47.868Z,26.46
2022-08-07T16:56:30.431Z,26.59
2022-08-07T16:59:21.584Z,26.62
2022-08-07T17:02:06.725Z,26.65
2022-08-07T17:04:58.837Z,26.67
2022-08-07T17:07:55.900Z,26.62
2022-08-07T17:10:33.191Z,26.61
2022-08-07T17:13:40.340Z,26.62
2022-08-07T17:16:33.236Z,26.51
2022-08-07T17:20:02.106Z,26.50
2022-08-07T17:22:43.393Z,26.44
2022-08-07T17:25:20.125Z,26.42
2022-08-07T17:28:19.672Z,26.42
2022-08-07T17:31:16.559Z,26.46
2022-08-07T17:34:19.831Z,26.41
2022-08-07T17:36:57.683Z,26.28
2022-08-07T17:39:53.157Z,26.08
2022-08-07T17:42:59.203Z,25.72
2022-08-07T17:45:36.276Z,25.40
2022-08-07T17:48:12.764Z,25.11
2022-08-07T17:51:21.487Z,24.82
2022-08-07T17:54:29.651Z,24.56
2022-08-07T17:57:25.037Z,24.24
2022-08-07T18:00:32.742Z,23.92
2022-08-07T18:04:03.617Z,23.81
2022-08-07T18:06:38.423Z,23.58
2022-08-07T18:09:08.761Z,23.37
2022-08-07T18:12:28.721Z,23.36
2022-08-07T18:15:10.842Z,23.17
2022-08-07T18:18:45.478Z,23.12
2022-08-07T18:21:40.209Z,23.11
2022-08-07T18:24:33.938Z,23.07
2022-08-07T18:27:39.821Z,23.10
2022-08-07T18:30:30.729Z,22.94
2022-08-07T18:33:36.583Z,22.94
2022-08-07T18:36:33.001Z,22.80
2022-08-07T18:40:06.373Z,22.77
2022-08-07T18:42:27.790Z,22.67
2022-08-07T18:45:44.923Z,22.55
2022-08-07T18:50:05.072Z,22.47
2022-08-07T18:52:38.867Z,22.36
2022-08-07T18:54:39.400Z,22.18
2022-08-07T18:57:30.963Z,22.05
2022-08-07T19:00:34.241Z,21.90
2022-08-07T19:03:15.921Z,21.74
2022-08-07T19:06:01.891Z,21.58
2022-08-07T19:08:46.539Z,21.50
2022-08-07T19:11:35.561Z,21.26
2022-08-07T19:14:17.361Z,21.21
2022-08-07T19:17:07.073Z,21.08
2022-08-07T19:20:06.805Z,20.99
2022-08-07T19:23:18.950Z,20.79
2022-08-07T19:26:23.164Z,20.61
2022-08-07T19:30:54.779Z,20.50
2022-08-07T19:32:07.918Z,20.40
2022-08-07T19:34:32.374Z,20.22
2022-08-07T19:37:10.035Z,20.10
2022-08-07T19:39:57.211Z,19.94
2022-08-07T19:42:26.965Z,19.85
2022-08-07T19:45:08.557Z,19.71
2022-08-07T19:47:41.868Z,19.60
2022-08-07T19:50:41.450Z,19.47
2022-08-07T19:52:58.358Z,19.30
2022-08-07T19:55:57.369Z,19.17
2022-08-07T19:58:15.950Z,19.03
2022-08-07T20:00:53.859Z,18.90
2022-08-07T20:03:35.613Z,18.78
2022-08-07T20:06:05.037Z,18.61
2022-08-07T20:08:36.827Z,18.53
2022-08-07T20:11:09.916Z,18.42
2022-08-07T20:13:53.479Z,18.33
2022-08-07T20:16:35.277Z,18.21
2022-08-07T20:19:05.970Z,18.08
2022-08-07T20:21:41.692Z,17.96
2022-08-07T20:24:21.093Z,17.93
2022-08-07T20:26:52.355Z,17.83
2022-08-07T20:29:46.773Z,17.77
2022-08-07T20:32:22.617Z,17.69
2022-08-07T20:34:55.908Z,17.61
2022-08-07T20:37:36.980Z,17.56
2022-08-07T20:40:32.666Z,17.49
2022-08-07T20:43:02.830Z,17.42
2022-08-07T20:46:27.011Z,17.36
2022-08-07T20:48:29.698Z,17.31
2022-08-07T20:51:00.144Z,17.21
2022-08-07T20:54:02.776Z,17.16
2022-08-07T20:56:16.548Z,17.10
2022-08-07T20:58:53.151Z,17.03
2022-08-07T21:01:20.958Z,16.95
2022-08-07T21:04:18.741Z,16.87
2022-08-07T21:06:42.419Z,16.78
2022-08-07T21:09:17.403Z,16.72
2022-08-07T21:11:55.656Z,16.63
2022-08-07T21:14:33.080Z,16.57
2022-08-07T21:18:00.658Z,16.49
2022-08-07T21:20:01.053Z,16.42
2022-08-07T21:22:34.472Z,16.29
2022-08-07T21:25:19.287Z,16.27
2022-08-07T21:27:47.043Z,16.18
2022-08-07T21:30:16.664Z,16.11
2022-08-07T21:33:11.717Z,16.08
2022-08-07T21:36:06.664Z,16.01
2022-08-07T21:39:01.608Z,15.98
2022-08-07T21:42:37.797Z,15.90
2022-08-07T21:46:03.207Z,15.84
2022-08-07T21:48:07.558Z,15.78
2022-08-07T21:51:04.938Z,15.72
2022-08-07T21:53:46.417Z,15.63
2022-08-07T21:56:47.764Z,15.63
2022-08-07T22:00:03.971Z,15.60
2022-08-07T22:02:46.416Z,15.53
2022-08-07T22:05:43.909Z,15.48
2022-08-07T22:08:10.490Z,15.40
2022-08-07T22:10:38.612Z,15.36
2022-08-07T22:13:14.332Z,15.33
2022-08-07T22:16:43.509Z,15.31
2022-08-07T22:18:54.441Z,15.29
2022-08-07T22:22:05.230Z,15.23
2022-08-07T22:24:32.849Z,15.19
2022-08-07T22:27:12.370Z,15.14
2022-08-07T22:30:02.067Z,15.10
2022-08-07T22:32:55.953Z,15.04
2022-08-07T22:35:24.882Z,14.95
2022-08-07T22:38:51.859Z,14.95
2022-08-07T22:41:29.198Z,14.85
2022-08-07T22:44:18.690Z,14.81
2022-08-07T22:47:03.452Z,14.76
2022-08-07T22:49:51.813Z,14.71
2022-08-07T22:52:43.465Z,14.65
2022-08-07T22:56:04.737Z,14.65
2022-08-07T22:58:40.591Z,14.57
2022-08-07T23:01:49.348Z,14.55
2022-08-07T23:04:57.874Z,14.51
2022-08-07T23:08:22.559Z,14.47
2022-08-07T23:11:06.275Z,14.49
2022-08-07T23:14:24.680Z,14.40
2022-08-07T23:17:29.529Z,14.34
2022-08-07T23:20:51.300Z,14.30
2022-08-07T23:24:05.568Z,14.27
2022-08-07T23:26:54.803Z,14.22
2022-08-07T23:30:37.308Z,14.19
2022-08-07T23:34:36.358Z,14.14
2022-08-07T23:36:22.946Z,14.09
2022-08-07T23:39:14.426Z,14.04
2022-08-07T23:42:04.604Z,13.97
2022-08-07T23:45:03.114Z,13.95
2022-08-07T23:47:42.201Z,13.88
2022-08-07T23:50:34.411Z,13.86
2022-08-07T23:53:17.559Z,13.83
2022-08-07T23:56:11.955Z,13.80
2022-08-07T23:58:57.686Z,13.75
